Flight Track Log - Related Links

Times and Time Zones

All times are in EDT time to prevent confusion due to time zone crossing. See the SWA311 flight status page for this flight to view local times or setup timezone preferences in your user account.

Time Position Orientation Groundspeed Altitude Reporting Facility
EDT Latitude Longitude Course Direction KTS MPH feet Rate Location/Type
Sun 11:49:40 AM 26.0750 -80.1344 84° East 168 193 900  Level Miami Center
Sun 11:50:42 AM 26.0803 -80.0789 84° East 196 226 3,100 1,767 Climbing Miami Center
Sun 11:51:49 AM 26.1483 -80.0322 32° Northeast 278 320 4,700 745 Climbing Miami Center
Sun 11:53:15 AM 26.2242 -80.0944 324° Northwest 274 315 5,000 658 Climbing Miami Center
Sun 11:54:15 AM 26.2369 -80.1781 280° West 253 291 6,300 2,000 Climbing Miami Center
Sun 11:55:15 AM 26.2497 -80.2619 280° West 265 305 9,000 1,350 Climbing Miami Center
Sun 11:56:15 AM 26.2581 -80.3456 276° West 277 319 9,000 50 Level Miami Center
Sun 11:57:15 AM 26.2728 -80.4294 281° West 277 319 9,100 700 Climbing Miami Center
Sun 11:58:15 AM 26.2853 -80.5131 279° West 277 319 10,400 1,300 Climbing Miami Center
Sun 11:59:15 AM 26.3186 -80.6022 293° West 290 334 11,700 2,200 Climbing Miami Center
Sun 12:00:15 PM 26.3808 -80.6947 307° West 349 402 14,800 2,750 Climbing Miami Center
Sun 12:01:15 PM 26.4411 -80.7894 305° West 378 435 17,200 2,500 Climbing Miami Center
Sun 12:02:15 PM 26.5072 -80.8892 307° West 398 458 19,800 2,350 Climbing Miami Center
Sun 12:03:15 PM 26.5733 -80.9911 306° West 398 458 21,900 2,100 Climbing Miami Center
Sun 12:04:15 PM 26.6411 -81.0981 305° West 416 479 24,000 2,150 Climbing Miami Center
Sun 12:05:15 PM 26.7031 -81.1956 305° West 423 487 26,200 2,100 Climbing Miami Center
Sun 12:06:15 PM 26.7708 -81.3050 305° West 428 493 28,200 2,450 Climbing Miami Center
Sun 12:07:15 PM 26.8403 -81.4172 305° West 419 482 31,100 2,600 Climbing Miami Center
Sun 12:08:15 PM 26.8933 -81.5239 299° West 402 463 33,400 1,450 Climbing Miami Center
Sun 12:09:15 PM 26.9406 -81.6144 300° West 381 438 34,000 300 Climbing Miami Center
Sun 12:10:15 PM 26.9931 -81.7283 297° West 381 438 34,000  Level Miami Center
Sun 12:11:15 PM 27.0439 -81.8261 300° West 375 432 34,000  Level Miami Center
Sun 12:12:15 PM 27.0800 -81.9347 290° West 369 425 34,000  Level Miami Center
Sun 12:13:15 PM 27.1114 -82.0458 288° West 376 433 34,000  Level Miami Center
Sun 12:14:15 PM 27.1392 -82.1450 287° West 376 433 34,000  Level Miami Center
Sun 12:15:15 PM 27.1706 -82.2561 288° West 371 427 34,000  Level Miami Center
Sun 12:16:15 PM 27.2081 -82.3700 290° West 371 427 34,000 650 Level Miami Center
Sun 12:17:15 PM 27.2372 -82.4764 287° West 366 421 35,300 1,000 Climbing Miami Center
Sun 12:18:15 PM 27.2681 -82.5947 286° West 366 421 36,000 750 Climbing Miami Center
Sun 12:19:15 PM 27.2975 -82.6917 289° West 371 427 36,800 800 Climbing Miami Center
Sun 12:20:15 PM 27.3264 -82.8031 286° West 371 427 37,600 600 Climbing Miami Center
Sun 12:21:15 PM 27.3631 -82.9264 289° West 371 427 38,000 200 Climbing Miami Center
Sun 12:22:15 PM 27.3917 -83.0378 286° West 371 427 38,000  Level Miami Center
Sun 12:23:15 PM 27.4267 -83.1472 290° West 371 427 38,000  Level Miami Center
Sun 12:24:15 PM 27.4575 -83.2542 288° West 371 427 38,000  Level Miami Center
Sun 12:25:15 PM 27.4836 -83.3656 285° West 366 421 38,000  Level Miami Center
Sun 12:26:15 PM 27.5142 -83.4725 288° West 366 421 38,000  Level Miami Center
Sun 12:27:15 PM 27.5447 -83.5819 288° West 366 421 38,000  Level Miami Center
Sun 12:28:15 PM 27.5769 -83.6939 288° West 366 421 38,000  Level Miami Center
Sun 12:29:15 PM 27.6050 -83.8031 286° West 366 421 38,000  Level Miami Center
Sun 12:30:15 PM 27.6414 -83.9153 290° West 366 421 38,000  Level Miami Center
Sun 12:31:15 PM 27.6672 -84.0225 285° West 366 421 38,000  Level Miami Center
Sun 12:32:15 PM 27.6994 -84.1322 288° West 366 421 38,000  Level Miami Center
Sun 12:33:15 PM 27.7253 -84.2392 285° West 366 421 38,000  Level Miami Center
Sun 12:34:15 PM 27.7531 -84.3464 286° West 366 421 38,000  Level Miami Center
Sun 12:34:45 PM 27.7697 -84.3911 293° West 363 418 38,000  Level Jacksonville Center
Sun 12:35:45 PM 27.7936 -84.5042 283° West 368 423 38,000  Level Jacksonville Center
Sun 12:36:45 PM 27.8275 -84.6150 289° West 368 423 38,000  Level Jacksonville Center
Sun 12:37:45 PM 27.8636 -84.7258 290° West 368 423 38,000  Level Jacksonville Center
Sun 12:38:45 PM 27.8889 -84.8556 282° West 376 433 38,000  Level Jacksonville Center
Sun 12:39:45 PM 27.9186 -84.9569 288° West 370 426 38,000  Level Jacksonville Center
Sun 12:40:45 PM 27.9500 -85.0681 288° West 370 426 38,000  Level Jacksonville Center
Sun 12:41:45 PM 27.9794 -85.1767 287° West 370 426 38,000  Level Jacksonville Center
Sun 12:42:45 PM 28.0025 -85.2853 284° West 365 420 38,000  Level Jacksonville Center
Sun 12:43:45 PM 28.0233 -85.3964 282° West 357 411 38,000  Level Jacksonville Center
Sun 12:44:45 PM 28.0461 -85.5122 283° West 366 421 38,000  Level Jacksonville Center
Sun 12:45:45 PM 28.0708 -85.6256 284° West 371 427 38,000  Level Jacksonville Center
Sun 12:46:45 PM 28.0914 -85.7344 282° West 366 421 38,000  Level Jacksonville Center
Sun 12:47:45 PM 28.1139 -85.8456 283° West 371 427 38,000  Level Jacksonville Center
Sun 12:48:45 PM 28.1344 -85.9522 282° West 367 422 38,000  Level Jacksonville Center
Sun 12:49:45 PM 28.1586 -86.0728 283° West 374 430 38,000  Level Jacksonville Center
Sun 12:50:45 PM 28.1808 -86.1842 283° West 368 423 38,000  Level Jacksonville Center
Sun 12:51:45 PM 28.2031 -86.2981 283° West 373 429 38,000  Level Jacksonville Center
Sun 12:52:45 PM 28.2231 -86.4069 282° West 368 423 38,000 -50 Level Jacksonville Center
Sun 12:53:45 PM 28.2450 -86.5114 283° West 361 415 37,900  Descending Jacksonville Center
Sun 12:54:45 PM 28.2669 -86.6278 282° West 356 410 38,000 50 Climbing Jacksonville Center
Sun 12:55:45 PM 28.2867 -86.7344 282° West 356 410 38,000  Level Jacksonville Center
Sun 12:56:45 PM 28.3081 -86.8483 282° West 364 419 38,000  Level Jacksonville Center
Sun 12:57:45 PM 28.3278 -86.9575 282° West 359 413 38,000  Level Jacksonville Center
Sun 12:58:45 PM 28.3531 -87.0789 283° West 372 428 38,000  Level Jacksonville Center
Sun 12:59:45 PM 28.3703 -87.1858 280° West 372 428 38,000  Level Jacksonville Center
Sun 01:00:45 PM 28.3933 -87.3047 282° West 364 419 38,000  Level Jacksonville Center
Sun 01:01:45 PM 28.4125 -87.4139 281° West 379 436 38,000  Level Jacksonville Center
Sun 01:03:24 PM 28.4481 -87.5997 282° West 372 428 38,000  Level Houston Center
Sun 01:04:26 PM 28.4683 -87.7133 282° West 368 423 38,000  Level Houston Center
Sun 01:05:28 PM 28.4881 -87.8264 281° West 367 422 38,000  Level Houston Center
Sun 01:06:29 PM 28.5092 -87.9369 282° West 361 415 38,000  Level Houston Center
Sun 01:07:31 PM 28.5286 -88.0481 281° West 359 413 38,000  Level Houston Center
Sun 01:08:34 PM 28.5508 -88.1781 281° West 356 410 38,000  Level Houston Center
Sun 01:09:36 PM 28.5706 -88.2867 282° West 354 407 38,000  Level Houston Center
Sun 01:10:38 PM 28.5906 -88.3981 282° West 359 413 38,000  Level Houston Center
Sun 01:11:40 PM 28.6097 -88.5086 281° West 358 412 38,000  Level Houston Center
Sun 01:12:42 PM 28.6292 -88.6181 281° West 356 410 38,000  Level Houston Center
Sun 01:13:44 PM 28.6483 -88.7297 281° West 357 411 38,000  Level Houston Center
Sun 01:14:46 PM 28.6714 -88.8631 281° West 359 413 38,000  Level Houston Center
Sun 01:15:48 PM 28.6911 -88.9750 281° West 362 417 38,000  Level Houston Center
Sun 01:16:50 PM 28.7106 -89.0869 281° West 362 417 38,000  Level Houston Center
Sun 01:17:52 PM 28.7281 -89.1992 280° West 362 417 38,000  Level Houston Center
Sun 01:18:55 PM 28.7478 -89.3103 281° West 360 414 38,000  Level Houston Center
Sun 01:19:57 PM 28.7667 -89.4217 281° West 360 414 38,000  Level Houston Center
Sun 01:20:59 PM 28.7883 -89.5542 281° West 356 410 38,000  Level Houston Center
Sun 01:22:01 PM 28.8069 -89.6667 281° West 360 414 38,000  Level Houston Center
Sun 01:23:03 PM 28.8261 -89.7769 281° West 356 410 38,000  Level Houston Center
Sun 01:24:05 PM 28.8436 -89.8869 280° West 353 406 38,000  Level Houston Center
Sun 01:25:07 PM 28.8617 -89.9958 281° West 351 404 38,000  Level Houston Center
Sun 01:26:09 PM 28.8794 -90.1075 280° West 356 410 38,000  Level Houston Center
Sun 01:27:12 PM 28.9019 -90.2400 281° West 355 409 38,000  Level Houston Center
Sun 01:28:14 PM 28.9194 -90.3506 280° West 354 407 38,000  Level Houston Center
Sun 01:29:16 PM 28.9369 -90.4592 280° West 350 403 38,000  Level Houston Center
Sun 01:30:18 PM 28.9544 -90.5703 280° West 355 409 38,000  Level Houston Center
Sun 01:31:20 PM 28.9722 -90.6800 281° West 353 406 38,000  Level Houston Center
Sun 01:32:22 PM 28.9897 -90.7911 280° West 356 410 38,000  Level Houston Center
Sun 01:33:24 PM 29.0100 -90.9231 280° West 352 405 38,000  Level Houston Center
Sun 01:34:26 PM 29.0192 -91.0347 275° West 353 406 38,000  Level Houston Center
Sun 01:35:28 PM 29.0286 -91.1461 276° West 353 406 38,000  Level Houston Center
Sun 01:36:31 PM 29.0378 -91.2567 275° West 353 406 38,000  Level Houston Center
Sun 01:37:33 PM 29.0478 -91.3675 276° West 351 404 38,000  Level Houston Center
Sun 01:38:35 PM 29.0556 -91.4786 275° West 352 405 38,000  Level Houston Center
Sun 01:39:37 PM 29.0664 -91.6131 275° West 353 406 38,000  Level Houston Center
Sun 01:40:39 PM 29.0756 -91.7247 275° West 354 407 38,000  Level Houston Center
Sun 01:41:41 PM 29.0853 -91.8431 275° West 353 406 38,000  Level Houston Center
Sun 01:42:43 PM 29.0942 -91.9522 275° West 345 397 38,000  Level Houston Center
Sun 01:43:45 PM 29.1028 -92.0619 275° West 346 398 38,000  Level Houston Center
Sun 01:44:47 PM 29.1100 -92.1711 274° West 344 396 38,000  Level Houston Center
Sun 01:45:50 PM 29.1197 -92.2822 276° West 349 402 38,000  Level Houston Center
Sun 01:46:52 PM 29.1281 -92.3933 275° West 351 404 38,000  Level Houston Center
Sun 01:47:54 PM 29.1372 -92.5297 274° West 356 410 38,000  Level Houston Center
Sun 01:48:56 PM 29.1458 -92.6428 275° West 357 411 38,000  Level Houston Center
Sun 01:49:58 PM 29.1542 -92.7569 275° West 360 414 38,000 -242 Level Houston Center
Sun 01:51:00 PM 29.1631 -92.8703 275° West 358 412 37,500 -726 Descending Houston Center
Sun 01:52:02 PM 29.1700 -92.9822 274° West 354 407 36,500 -968 Descending Houston Center
Sun 01:53:04 PM 29.1781 -93.0911 275° West 346 398 35,500 -1,016 Descending Houston Center
Sun 01:54:06 PM 29.1878 -93.2258 275° West 352 405 34,400 -960 Descending Houston Center
Sun 01:55:09 PM 29.1944 -93.3417 274° West 362 417 33,500 -912 Descending Houston Center
Sun 01:56:11 PM 29.2031 -93.4586 275° West 367 422 32,500 -1,839 Descending Houston Center
Sun 01:57:13 PM 29.2106 -93.5722 274° West 361 415 29,700 -2,565 Descending Houston Center
Sun 01:58:15 PM 29.2181 -93.6861 274° West 359 413 27,200 -2,371 Descending Houston Center
Sun 01:59:17 PM 29.2253 -93.8000 274° West 357 411 24,800 -2,526 Descending Houston Center
Sun 02:00:09 PM 29.2322 -93.9169 274° West 361 415 22,400 -2,419 Descending Houston Center
Sun 02:01:21 PM 29.2411 -94.0367 275° West 359 413 19,800 -2,015 Descending Houston Center
Sun 02:02:23 PM 29.2478 -94.1647 273° West 340 391 17,900 -1,548 Descending Houston Center
Sun 02:03:25 PM 29.2544 -94.2731 274° West 341 392 16,600 -1,872 Descending Houston Center
Sun 02:04:28 PM 29.2614 -94.3903 274° West 331 381 14,000 -2,565 Descending Houston Center
Sun 02:05:29 PM 29.2736 -94.4917 278° West 329 379 11,300 -1,967 Descending Houston Center
Sun 02:06:30 PM 29.3192 -94.5936 297° West 342 394 10,000 -624 Descending Houston Center
Sun 02:07:34 PM 29.3592 -94.6717 300° West 338 389 10,000  Level Houston Center
Sun 02:08:36 PM 29.4125 -94.7803 299° West 326 375 10,000 -581 Level Houston Center
Sun 02:09:38 PM 29.4494 -94.8550 300° West 277 319 8,800 -1,306 Descending Houston Center
Sun 02:10:40 PM 29.4872 -94.9308 300° West 273 314 7,300 -1,210 Descending Houston Center
Sun 02:11:42 PM 29.5239 -95.0056 299° West 268 308 6,300 -706 Descending Houston Center
Sun 02:12:39 PM 29.5617 -95.0842 299° West 265 305 5,900 -153 Descending Houston Center
Sun 02:13:40 PM 29.5875 -95.1581 292° West 226 260 6,000 49 Climbing Houston Center
Sun 02:14:42 PM 29.5664 -95.2253 250° West 224 258 6,000 -458 Level Houston Center
Sun 02:15:51 PM 29.5178 -95.2867 228° Southwest 231 266 5,000 -797 Descending Houston Center
Sun 02:16:50 PM 29.4844 -95.3361 232° Southwest 195 224 4,300 -1,043 Descending Houston Center
Sun 02:17:46 PM 29.5075 -95.3839 299° West 207 238 3,000 -1,077 Descending Houston Center
Sun 02:18:47 PM 29.5517 -95.3833 North 163 188 2,200 -738 Descending Houston Center
Sun 02:19:48 PM 29.5878 -95.3406 46° Northeast 170 196 1,500 -776 Descending Houston Center
Sun 02:20:43 PM 29.6144 -95.3108 44° Northeast 135 155 700 -740 Descending Houston Center
Sun 02:21:01 PM 29.6186 -95.3078 33° Northeast 161 185 600 -333 Descending Houston Center

Login

Don't have an account? Register now (free) for customized features, flight alerts, and more!